Terminal Aerodrome Forecast
Issued by NWS

Home | Current Version | Previous Version | Graphics & Text | Print | Product List | Glossary On
Versions: 1 2 3 4 5 6 7 8 9 10 11 12 13 14 15 16 17 18 19 20
000
FTUS43 KMPX 271300 AAA
TAFAXN
TAF AMD
KAXN 271301Z 2713/2812 13005KT P6SM FEW002 BKN100
      TEMPO 2713/2714 6SM BR BKN002
     FM271400 17005KT P6SM SCT070 SCT250
     FM280900 12004KT P6SM OVC150=

USA.gov is the U.S. government's official web portal to all federal, state and local government web resources and services.